sensor_id;sensor_type;location;lat;lon;timestamp;temperature;humidity
23560;DHT22;11958;50.836;4.438;2023-07-09T00:00:32;22.20;81.00
23560;DHT22;11958;50.836;4.438;2023-07-09T00:02:57;22.40;79.60
23560;DHT22;11958;50.836;4.438;2023-07-09T00:06:07;22.50;79.10
23560;DHT22;11958;50.836;4.438;2023-07-09T00:08:54;22.50;79.10
23560;DHT22;11958;50.836;4.438;2023-07-09T00:11:20;22.10;80.60
23560;DHT22;11958;50.836;4.438;2023-07-09T00:13:45;22.20;80.80
23560;DHT22;11958;50.836;4.438;2023-07-09T00:16:19;21.90;81.00
23560;DHT22;11958;50.836;4.438;2023-07-09T00:18:48;21.70;82.60
23560;DHT22;11958;50.836;4.438;2023-07-09T00:21:19;21.80;82.10
23560;DHT22;11958;50.836;4.438;2023-07-09T00:23:46;22.00;82.00
23560;DHT22;11958;50.836;4.438;2023-07-09T00:26:16;22.20;80.90
23560;DHT22;11958;50.836;4.438;2023-07-09T00:28:42;22.20;80.70
23560;DHT22;11958;50.836;4.438;2023-07-09T00:31:13;21.90;81.30
23560;DHT22;11958;50.836;4.438;2023-07-09T00:33:40;21.70;82.10
23560;DHT22;11958;50.836;4.438;2023-07-09T00:36:30;21.60;83.20
23560;DHT22;11958;50.836;4.438;2023-07-09T00:38:59;21.70;82.80
23560;DHT22;11958;50.836;4.438;2023-07-09T00:41:35;21.80;82.50
23560;DHT22;11958;50.836;4.438;2023-07-09T00:44:29;21.90;82.50
23560;DHT22;11958;50.836;4.438;2023-07-09T00:49:33;22.00;82.00
23560;DHT22;11958;50.836;4.438;2023-07-09T00:52:05;21.80;82.30
23560;DHT22;11958;50.836;4.438;2023-07-09T00:54:41;21.80;82.60
23560;DHT22;11958;50.836;4.438;2023-07-09T00:57:13;21.70;82.50
23560;DHT22;11958;50.836;4.438;2023-07-09T00:59:43;21.80;82.30
23560;DHT22;11958;50.836;4.438;2023-07-09T01:02:09;21.80;81.90
23560;DHT22;11958;50.836;4.438;2023-07-09T01:04:35;21.90;81.90
23560;DHT22;11958;50.836;4.438;2023-07-09T01:07:01;22.00;81.70
23560;DHT22;11958;50.836;4.438;2023-07-09T01:09:27;22.10;81.40
23560;DHT22;11958;50.836;4.438;2023-07-09T01:11:53;22.00;81.10
23560;DHT22;11958;50.836;4.438;2023-07-09T01:14:23;21.90;82.10
23560;DHT22;11958;50.836;4.438;2023-07-09T01:17:00;21.80;82.40
23560;DHT22;11958;50.836;4.438;2023-07-09T01:19:29;21.80;82.00
23560;DHT22;11958;50.836;4.438;2023-07-09T01:21:56;21.90;81.20
23560;DHT22;11958;50.836;4.438;2023-07-09T01:27:11;22.00;81.50
23560;DHT22;11958;50.836;4.438;2023-07-09T01:29:37;21.90;81.60
23560;DHT22;11958;50.836;4.438;2023-07-09T01:32:04;21.90;81.50
23560;DHT22;11958;50.836;4.438;2023-07-09T01:34:32;21.70;82.10
23560;DHT22;11958;50.836;4.438;2023-07-09T01:36:57;21.50;83.60
23560;DHT22;11958;50.836;4.438;2023-07-09T01:39:28;21.60;82.80
23560;DHT22;11958;50.836;4.438;2023-07-09T01:41:54;21.60;82.70
23560;DHT22;11958;50.836;4.438;2023-07-09T01:44:21;21.80;82.20
23560;DHT22;11958;50.836;4.438;2023-07-09T01:46:55;21.70;82.80
23560;DHT22;11958;50.836;4.438;2023-07-09T01:49:21;21.60;83.00
23560;DHT22;11958;50.836;4.438;2023-07-09T01:51:47;21.80;82.70
23560;DHT22;11958;50.836;4.438;2023-07-09T01:54:15;21.90;81.80
23560;DHT22;11958;50.836;4.438;2023-07-09T01:56:43;21.60;83.00
23560;DHT22;11958;50.836;4.438;2023-07-09T01:59:09;21.30;83.90
23560;DHT22;11958;50.836;4.438;2023-07-09T02:01:36;21.40;84.20
23560;DHT22;11958;50.836;4.438;2023-07-09T02:04:04;21.60;82.80
23560;DHT22;11958;50.836;4.438;2023-07-09T02:06:29;21.50;83.50
23560;DHT22;11958;50.836;4.438;2023-07-09T02:08:57;21.40;83.80
23560;DHT22;11958;50.836;4.438;2023-07-09T02:11:24;21.30;84.30
23560;DHT22;11958;50.836;4.438;2023-07-09T02:13:50;21.50;83.40
23560;DHT22;11958;50.836;4.438;2023-07-09T02:16:16;21.80;82.40
23560;DHT22;11958;50.836;4.438;2023-07-09T02:18:42;21.70;82.60
23560;DHT22;11958;50.836;4.438;2023-07-09T02:21:07;21.50;82.70
23560;DHT22;11958;50.836;4.438;2023-07-09T02:23:33;21.50;83.20
23560;DHT22;11958;50.836;4.438;2023-07-09T02:25:59;21.60;82.80
23560;DHT22;11958;50.836;4.438;2023-07-09T02:28:24;21.50;83.00
23560;DHT22;11958;50.836;4.438;2023-07-09T02:30:50;21.40;83.20
23560;DHT22;11958;50.836;4.438;2023-07-09T02:33:16;21.50;83.50
23560;DHT22;11958;50.836;4.438;2023-07-09T02:35:41;21.80;82.50
23560;DHT22;11958;50.836;4.438;2023-07-09T02:38:07;21.60;82.50
23560;DHT22;11958;50.836;4.438;2023-07-09T02:40:33;21.60;83.20
23560;DHT22;11958;50.836;4.438;2023-07-09T02:42:59;21.60;83.40
23560;DHT22;11958;50.836;4.438;2023-07-09T02:45:25;21.80;82.70
23560;DHT22;11958;50.836;4.438;2023-07-09T02:47:50;21.50;82.90
23560;DHT22;11958;50.836;4.438;2023-07-09T02:50:16;21.30;83.90
23560;DHT22;11958;50.836;4.438;2023-07-09T02:52:42;21.50;84.10
23560;DHT22;11958;50.836;4.438;2023-07-09T02:55:07;21.60;83.20
23560;DHT22;11958;50.836;4.438;2023-07-09T02:57:33;21.40;83.50
23560;DHT22;11958;50.836;4.438;2023-07-09T02:59:59;21.60;83.10
23560;DHT22;11958;50.836;4.438;2023-07-09T03:02:25;21.50;82.50
23560;DHT22;11958;50.836;4.438;2023-07-09T03:04:51;21.30;83.30
23560;DHT22;11958;50.836;4.438;2023-07-09T03:07:17;21.40;83.90
23560;DHT22;11958;50.836;4.438;2023-07-09T03:09:43;21.40;83.30
23560;DHT22;11958;50.836;4.438;2023-07-09T03:12:09;21.20;83.60
23560;DHT22;11958;50.836;4.438;2023-07-09T03:14:36;21.10;84.20
23560;DHT22;11958;50.836;4.438;2023-07-09T03:17:01;21.30;83.10
23560;DHT22;11958;50.836;4.438;2023-07-09T03:19:28;21.10;84.20
23560;DHT22;11958;50.836;4.438;2023-07-09T03:21:53;21.30;84.20
23560;DHT22;11958;50.836;4.438;2023-07-09T03:24:19;21.50;83.00
23560;DHT22;11958;50.836;4.438;2023-07-09T03:26:45;21.40;83.10
23560;DHT22;11958;50.836;4.438;2023-07-09T03:29:12;21.60;83.00
23560;DHT22;11958;50.836;4.438;2023-07-09T03:31:38;21.60;82.10
23560;DHT22;11958;50.836;4.438;2023-07-09T03:34:04;21.60;81.90
23560;DHT22;11958;50.836;4.438;2023-07-09T03:36:30;21.40;82.50
23560;DHT22;11958;50.836;4.438;2023-07-09T03:38:56;21.40;82.60
23560;DHT22;11958;50.836;4.438;2023-07-09T03:41:22;21.30;83.10
23560;DHT22;11958;50.836;4.438;2023-07-09T03:43:47;21.50;82.40
23560;DHT22;11958;50.836;4.438;2023-07-09T03:48:59;21.80;81.20
23560;DHT22;11958;50.836;4.438;2023-07-09T03:51:25;21.60;81.20
23560;DHT22;11958;50.836;4.438;2023-07-09T03:53:50;21.70;81.30
23560;DHT22;11958;50.836;4.438;2023-07-09T03:56:16;21.50;82.00
23560;DHT22;11958;50.836;4.438;2023-07-09T03:58:42;21.50;81.10
23560;DHT22;11958;50.836;4.438;2023-07-09T04:01:08;21.40;82.00
23560;DHT22;11958;50.836;4.438;2023-07-09T04:03:33;21.40;81.90
23560;DHT22;11958;50.836;4.438;2023-07-09T04:05:59;21.30;82.20
23560;DHT22;11958;50.836;4.438;2023-07-09T04:08:24;21.50;82.10
23560;DHT22;11958;50.836;4.438;2023-07-09T04:10:53;21.40;81.90
23560;DHT22;11958;50.836;4.438;2023-07-09T04:13:20;21.30;82.80
23560;DHT22;11958;50.836;4.438;2023-07-09T04:15:46;21.60;82.00
23560;DHT22;11958;50.836;4.438;2023-07-09T04:18:12;22.00;80.50
23560;DHT22;11958;50.836;4.438;2023-07-09T04:20:37;21.90;79.70
23560;DHT22;11958;50.836;4.438;2023-07-09T04:23:03;22.20;79.00
23560;DHT22;11958;50.836;4.438;2023-07-09T04:25:29;22.40;78.20
23560;DHT22;11958;50.836;4.438;2023-07-09T04:27:55;22.40;78.00
23560;DHT22;11958;50.836;4.438;2023-07-09T04:30:21;22.50;78.40
23560;DHT22;11958;50.836;4.438;2023-07-09T04:32:46;22.50;77.60
23560;DHT22;11958;50.836;4.438;2023-07-09T04:35:14;22.40;77.30
23560;DHT22;11958;50.836;4.438;2023-07-09T04:37:39;22.30;77.00
23560;DHT22;11958;50.836;4.438;2023-07-09T04:40:06;22.20;77.20
23560;DHT22;11958;50.836;4.438;2023-07-09T04:42:33;22.30;77.70
23560;DHT22;11958;50.836;4.438;2023-07-09T04:44:59;22.40;77.10
23560;DHT22;11958;50.836;4.438;2023-07-09T04:47:24;22.50;76.70
23560;DHT22;11958;50.836;4.438;2023-07-09T04:49:50;22.60;76.80
23560;DHT22;11958;50.836;4.438;2023-07-09T04:52:16;22.70;76.40
23560;DHT22;11958;50.836;4.438;2023-07-09T04:54:42;22.50;76.20
23560;DHT22;11958;50.836;4.438;2023-07-09T04:57:10;22.50;77.20
23560;DHT22;11958;50.836;4.438;2023-07-09T04:59:36;22.50;77.00
23560;DHT22;11958;50.836;4.438;2023-07-09T05:02:02;22.60;77.30
23560;DHT22;11958;50.836;4.438;2023-07-09T05:04:29;22.60;77.80
23560;DHT22;11958;50.836;4.438;2023-07-09T05:06:56;22.50;77.60
23560;DHT22;11958;50.836;4.438;2023-07-09T05:09:22;22.60;76.90
23560;DHT22;11958;50.836;4.438;2023-07-09T05:11:49;22.60;77.20
23560;DHT22;11958;50.836;4.438;2023-07-09T05:14:15;22.60;77.50
23560;DHT22;11958;50.836;4.438;2023-07-09T05:16:40;22.50;76.80
23560;DHT22;11958;50.836;4.438;2023-07-09T05:19:09;22.60;76.80
23560;DHT22;11958;50.836;4.438;2023-07-09T05:21:35;22.80;76.20
23560;DHT22;11958;50.836;4.438;2023-07-09T05:24:00;22.80;76.10
23560;DHT22;11958;50.836;4.438;2023-07-09T05:26:26;23.00;75.60
23560;DHT22;11958;50.836;4.438;2023-07-09T05:28:52;23.00;75.20
23560;DHT22;11958;50.836;4.438;2023-07-09T05:31:17;23.20;75.00
23560;DHT22;11958;50.836;4.438;2023-07-09T05:33:44;23.10;75.10
23560;DHT22;11958;50.836;4.438;2023-07-09T05:36:09;23.30;75.30
23560;DHT22;11958;50.836;4.438;2023-07-09T05:38:42;23.40;74.80
23560;DHT22;11958;50.836;4.438;2023-07-09T05:41:09;23.40;75.50
23560;DHT22;11958;50.836;4.438;2023-07-09T05:43:34;23.60;74.60
23560;DHT22;11958;50.836;4.438;2023-07-09T05:46:02;23.60;73.70
23560;DHT22;11958;50.836;4.438;2023-07-09T05:48:28;23.60;73.50
23560;DHT22;11958;50.836;4.438;2023-07-09T05:50:54;23.70;73.00
23560;DHT22;11958;50.836;4.438;2023-07-09T05:53:23;23.60;74.80
23560;DHT22;11958;50.836;4.438;2023-07-09T05:55:48;23.50;74.40
23560;DHT22;11958;50.836;4.438;2023-07-09T05:58:17;23.70;73.10
23560;DHT22;11958;50.836;4.438;2023-07-09T06:00:43;23.70;72.80
23560;DHT22;11958;50.836;4.438;2023-07-09T06:03:09;23.90;71.10
23560;DHT22;11958;50.836;4.438;2023-07-09T06:05:35;23.90;71.80
23560;DHT22;11958;50.836;4.438;2023-07-09T06:08:01;23.90;72.10
23560;DHT22;11958;50.836;4.438;2023-07-09T06:10:31;24.00;71.90
23560;DHT22;11958;50.836;4.438;2023-07-09T06:13:15;24.00;71.50
23560;DHT22;11958;50.836;4.438;2023-07-09T06:28:03;24.40;68.30
23560;DHT22;11958;50.836;4.438;2023-07-09T06:30:57;24.40;68.00
23560;DHT22;11958;50.836;4.438;2023-07-09T06:37:30;24.70;68.80
23560;DHT22;11958;50.836;4.438;2023-07-09T06:44:10;24.90;67.20
23560;DHT22;11958;50.836;4.438;2023-07-09T06:49:47;25.00;66.10
23560;DHT22;11958;50.836;4.438;2023-07-09T06:52:36;25.50;63.80
23560;DHT22;11958;50.836;4.438;2023-07-09T06:58:39;25.10;64.10
23560;DHT22;11958;50.836;4.438;2023-07-09T07:04:32;25.40;62.80
23560;DHT22;11958;50.836;4.438;2023-07-09T07:07:01;25.30;63.90
23560;DHT22;11958;50.836;4.438;2023-07-09T07:09:27;25.20;64.80
23560;DHT22;11958;50.836;4.438;2023-07-09T07:11:52;25.20;64.90
23560;DHT22;11958;50.836;4.438;2023-07-09T07:14:18;25.40;64.20
23560;DHT22;11958;50.836;4.438;2023-07-09T07:16:44;25.50;64.50
23560;DHT22;11958;50.836;4.438;2023-07-09T07:19:09;25.60;63.30
23560;DHT22;11958;50.836;4.438;2023-07-09T07:21:35;25.60;62.90
23560;DHT22;11958;50.836;4.438;2023-07-09T07:24:01;25.70;62.60
23560;DHT22;11958;50.836;4.438;2023-07-09T07:26:32;25.90;61.60
23560;DHT22;11958;50.836;4.438;2023-07-09T07:28:58;26.10;60.80
23560;DHT22;11958;50.836;4.438;2023-07-09T07:31:23;26.10;61.10
23560;DHT22;11958;50.836;4.438;2023-07-09T07:33:49;25.90;60.90
23560;DHT22;11958;50.836;4.438;2023-07-09T07:36:16;26.00;60.60
23560;DHT22;11958;50.836;4.438;2023-07-09T07:38:41;25.90;61.60
23560;DHT22;11958;50.836;4.438;2023-07-09T07:41:07;26.00;61.90
23560;DHT22;11958;50.836;4.438;2023-07-09T07:43:33;26.20;62.20
23560;DHT22;11958;50.836;4.438;2023-07-09T07:45:59;26.00;62.80
23560;DHT22;11958;50.836;4.438;2023-07-09T07:48:24;26.40;58.80
23560;DHT22;11958;50.836;4.438;2023-07-09T07:50:50;26.40;58.20
23560;DHT22;11958;50.836;4.438;2023-07-09T07:54:11;26.30;59.40
23560;DHT22;11958;50.836;4.438;2023-07-09T08:03:12;26.60;59.50
23560;DHT22;11958;50.836;4.438;2023-07-09T08:09:16;26.60;58.60
23560;DHT22;11958;50.836;4.438;2023-07-09T08:18:26;26.90;58.40
23560;DHT22;11958;50.836;4.438;2023-07-09T08:21:13;27.50;57.40
23560;DHT22;11958;50.836;4.438;2023-07-09T08:23:39;27.60;56.00
23560;DHT22;11958;50.836;4.438;2023-07-09T08:29:40;27.70;54.00
23560;DHT22;11958;50.836;4.438;2023-07-09T09:05:14;27.90;50.20
23560;DHT22;11958;50.836;4.438;2023-07-09T09:15:10;27.80;49.10
23560;DHT22;11958;50.836;4.438;2023-07-09T09:17:54;27.90;50.00
23560;DHT22;11958;50.836;4.438;2023-07-09T09:24:31;28.50;47.70
23560;DHT22;11958;50.836;4.438;2023-07-09T09:31:07;28.80;46.50
23560;DHT22;11958;50.836;4.438;2023-07-09T09:33:40;28.70;47.70
23560;DHT22;11958;50.836;4.438;2023-07-09T09:36:11;28.50;47.30
23560;DHT22;11958;50.836;4.438;2023-07-09T09:53:50;29.10;47.40
23560;DHT22;11958;50.836;4.438;2023-07-09T09:57:04;29.40;44.30
23560;DHT22;11958;50.836;4.438;2023-07-09T09:59:40;30.00;44.30
23560;DHT22;11958;50.836;4.438;2023-07-09T10:05:14;30.20;44.10
23560;DHT22;11958;50.836;4.438;2023-07-09T10:08:15;30.20;42.30
23560;DHT22;11958;50.836;4.438;2023-07-09T10:49:23;30.40;45.80
23560;DHT22;11958;50.836;4.438;2023-07-09T10:52:25;30.10;45.30
23560;DHT22;11958;50.836;4.438;2023-07-09T10:55:25;30.40;45.60
23560;DHT22;11958;50.836;4.438;2023-07-09T11:01:50;29.90;46.40
23560;DHT22;11958;50.836;4.438;2023-07-09T11:34:20;28.40;48.70
23560;DHT22;11958;50.836;4.438;2023-07-09T11:40:51;28.00;51.20
23560;DHT22;11958;50.836;4.438;2023-07-09T11:55:57;26.80;51.60
23560;DHT22;11958;50.836;4.438;2023-07-09T11:58:26;26.50;52.40
23560;DHT22;11958;50.836;4.438;2023-07-09T12:01:15;26.40;53.40
23560;DHT22;11958;50.836;4.438;2023-07-09T12:12:01;26.40;55.00
23560;DHT22;11958;50.836;4.438;2023-07-09T12:26:20;25.70;57.90
23560;DHT22;11958;50.836;4.438;2023-07-09T12:39:08;23.90;79.70
23560;DHT22;11958;50.836;4.438;2023-07-09T12:42:28;23.20;84.50
23560;DHT22;11958;50.836;4.438;2023-07-09T12:52:30;22.60;89.30
23560;DHT22;11958;50.836;4.438;2023-07-09T13:29:18;24.30;84.00
23560;DHT22;11958;50.836;4.438;2023-07-09T13:38:56;24.40;83.30
23560;DHT22;11958;50.836;4.438;2023-07-09T13:41:33;24.40;84.00
23560;DHT22;11958;50.836;4.438;2023-07-09T13:47:21;24.70;79.70
23560;DHT22;11958;50.836;4.438;2023-07-09T13:49:47;24.50;79.90
23560;DHT22;11958;50.836;4.438;2023-07-09T13:55:20;24.60;83.80
23560;DHT22;11958;50.836;4.438;2023-07-09T13:57:47;24.80;83.00
23560;DHT22;11958;50.836;4.438;2023-07-09T14:00:33;25.20;82.10
23560;DHT22;11958;50.836;4.438;2023-07-09T14:08:23;25.60;80.50
23560;DHT22;11958;50.836;4.438;2023-07-09T14:14:56;26.20;77.60
23560;DHT22;11958;50.836;4.438;2023-07-09T14:17:37;27.40;73.20
23560;DHT22;11958;50.836;4.438;2023-07-09T14:20:22;28.20;70.10
23560;DHT22;11958;50.836;4.438;2023-07-09T14:22:49;28.40;66.90
23560;DHT22;11958;50.836;4.438;2023-07-09T14:25:21;28.30;66.60
23560;DHT22;11958;50.836;4.438;2023-07-09T14:27:50;28.60;66.00
23560;DHT22;11958;50.836;4.438;2023-07-09T14:30:20;28.80;61.70
23560;DHT22;11958;50.836;4.438;2023-07-09T14:32:47;29.40;60.90
23560;DHT22;11958;50.836;4.438;2023-07-09T14:35:19;29.80;55.80
23560;DHT22;11958;50.836;4.438;2023-07-09T14:40:35;31.90;50.00
23560;DHT22;11958;50.836;4.438;2023-07-09T14:43:10;31.90;49.30
23560;DHT22;11958;50.836;4.438;2023-07-09T14:46:08;31.90;50.30
23560;DHT22;11958;50.836;4.438;2023-07-09T14:48:42;31.10;48.30
23560;DHT22;11958;50.836;4.438;2023-07-09T14:51:23;31.60;50.40
23560;DHT22;11958;50.836;4.438;2023-07-09T14:53:50;32.00;51.60
23560;DHT22;11958;50.836;4.438;2023-07-09T14:56:33;31.70;52.10
23560;DHT22;11958;50.836;4.438;2023-07-09T14:59:23;30.80;50.30
23560;DHT22;11958;50.836;4.438;2023-07-09T15:02:00;30.10;53.10
23560;DHT22;11958;50.836;4.438;2023-07-09T15:04:38;30.00;54.90
23560;DHT22;11958;50.836;4.438;2023-07-09T15:07:34;29.70;54.70
23560;DHT22;11958;50.836;4.438;2023-07-09T15:10:00;30.50;55.00
23560;DHT22;11958;50.836;4.438;2023-07-09T15:12:37;31.70;52.40
23560;DHT22;11958;50.836;4.438;2023-07-09T15:17:47;32.30;46.90
23560;DHT22;11958;50.836;4.438;2023-07-09T15:20:21;32.00;47.10
23560;DHT22;11958;50.836;4.438;2023-07-09T15:22:49;32.60;47.10
23560;DHT22;11958;50.836;4.438;2023-07-09T15:25:20;32.50;47.50
23560;DHT22;11958;50.836;4.438;2023-07-09T15:27:47;31.00;46.70
23560;DHT22;11958;50.836;4.438;2023-07-09T15:30:20;29.90;49.40
23560;DHT22;11958;50.836;4.438;2023-07-09T15:32:48;29.60;51.10
23560;DHT22;11958;50.836;4.438;2023-07-09T15:35:15;29.10;53.60
23560;DHT22;11958;50.836;4.438;2023-07-09T15:37:41;28.60;57.60
23560;DHT22;11958;50.836;4.438;2023-07-09T15:40:19;28.90;55.40
23560;DHT22;11958;50.836;4.438;2023-07-09T15:42:47;28.90;55.50
23560;DHT22;11958;50.836;4.438;2023-07-09T15:45:17;28.60;54.70
23560;DHT22;11958;50.836;4.438;2023-07-09T15:47:45;28.60;58.10
23560;DHT22;11958;50.836;4.438;2023-07-09T15:50:34;29.40;55.10
23560;DHT22;11958;50.836;4.438;2023-07-09T15:53:00;29.00;56.10
23560;DHT22;11958;50.836;4.438;2023-07-09T15:55:26;28.30;55.10
23560;DHT22;11958;50.836;4.438;2023-07-09T15:57:54;28.20;55.70
23560;DHT22;11958;50.836;4.438;2023-07-09T16:00:25;28.60;56.90
23560;DHT22;11958;50.836;4.438;2023-07-09T16:02:51;28.60;55.40
23560;DHT22;11958;50.836;4.438;2023-07-09T16:05:26;28.70;55.90
23560;DHT22;11958;50.836;4.438;2023-07-09T16:07:58;28.30;56.90
23560;DHT22;11958;50.836;4.438;2023-07-09T16:10:26;27.80;58.40
23560;DHT22;11958;50.836;4.438;2023-07-09T16:12:55;27.40;60.40
23560;DHT22;11958;50.836;4.438;2023-07-09T16:15:22;27.00;60.90
23560;DHT22;11958;50.836;4.438;2023-07-09T16:17:49;27.00;62.40
23560;DHT22;11958;50.836;4.438;2023-07-09T16:20:18;26.80;63.80
23560;DHT22;11958;50.836;4.438;2023-07-09T16:22:47;26.70;64.80
23560;DHT22;11958;50.836;4.438;2023-07-09T16:25:22;26.50;63.60
23560;DHT22;11958;50.836;4.438;2023-07-09T16:27:49;26.30;65.30
23560;DHT22;11958;50.836;4.438;2023-07-09T16:30:24;26.10;64.60
23560;DHT22;11958;50.836;4.438;2023-07-09T16:33:09;25.90;64.90
23560;DHT22;11958;50.836;4.438;2023-07-09T16:46:15;25.70;65.20
23560;DHT22;11958;50.836;4.438;2023-07-09T16:49:37;25.70;66.00
23560;DHT22;11958;50.836;4.438;2023-07-09T16:52:21;25.40;67.40
23560;DHT22;11958;50.836;4.438;2023-07-09T16:54:49;25.00;67.90
23560;DHT22;11958;50.836;4.438;2023-07-09T16:57:17;24.90;69.10
23560;DHT22;11958;50.836;4.438;2023-07-09T17:00:32;24.90;69.50
23560;DHT22;11958;50.836;4.438;2023-07-09T17:05:59;24.80;70.60
23560;DHT22;11958;50.836;4.438;2023-07-09T17:08:46;24.50;71.00
23560;DHT22;11958;50.836;4.438;2023-07-09T17:11:12;24.40;71.60
23560;DHT22;11958;50.836;4.438;2023-07-09T17:13:39;24.40;71.70
23560;DHT22;11958;50.836;4.438;2023-07-09T17:16:14;24.30;71.20
23560;DHT22;11958;50.836;4.438;2023-07-09T17:18:42;24.20;70.80
23560;DHT22;11958;50.836;4.438;2023-07-09T17:21:08;24.10;71.00
23560;DHT22;11958;50.836;4.438;2023-07-09T17:23:34;24.00;70.70
23560;DHT22;11958;50.836;4.438;2023-07-09T17:26:00;24.00;70.10
23560;DHT22;11958;50.836;4.438;2023-07-09T17:28:28;24.20;69.30
23560;DHT22;11958;50.836;4.438;2023-07-09T17:30:56;24.10;69.40
23560;DHT22;11958;50.836;4.438;2023-07-09T17:33:21;23.90;70.10
23560;DHT22;11958;50.836;4.438;2023-07-09T17:35:49;24.10;69.10
23560;DHT22;11958;50.836;4.438;2023-07-09T17:38:21;24.00;68.70
23560;DHT22;11958;50.836;4.438;2023-07-09T17:40:47;23.70;67.80
23560;DHT22;11958;50.836;4.438;2023-07-09T17:43:21;23.20;70.60
23560;DHT22;11958;50.836;4.438;2023-07-09T17:45:48;23.00;71.00
23560;DHT22;11958;50.836;4.438;2023-07-09T17:48:16;23.10;70.30
23560;DHT22;11958;50.836;4.438;2023-07-09T17:50:43;23.10;69.80
23560;DHT22;11958;50.836;4.438;2023-07-09T17:53:18;23.20;68.30
23560;DHT22;11958;50.836;4.438;2023-07-09T17:55:44;23.30;68.60
23560;DHT22;11958;50.836;4.438;2023-07-09T17:58:24;23.30;67.50
23560;DHT22;11958;50.836;4.438;2023-07-09T18:00:53;23.50;66.70
23560;DHT22;11958;50.836;4.438;2023-07-09T18:03:20;23.40;66.60
23560;DHT22;11958;50.836;4.438;2023-07-09T18:05:48;23.10;66.70
23560;DHT22;11958;50.836;4.438;2023-07-09T18:08:13;23.00;66.10
23560;DHT22;11958;50.836;4.438;2023-07-09T18:10:43;22.90;65.30
23560;DHT22;11958;50.836;4.438;2023-07-09T18:13:15;22.90;65.10
23560;DHT22;11958;50.836;4.438;2023-07-09T18:15:41;22.80;64.30
23560;DHT22;11958;50.836;4.438;2023-07-09T18:18:11;22.70;63.90
23560;DHT22;11958;50.836;4.438;2023-07-09T18:20:37;22.80;63.40
23560;DHT22;11958;50.836;4.438;2023-07-09T18:26:21;22.80;62.00
23560;DHT22;11958;50.836;4.438;2023-07-09T18:46:51;22.90;60.70
23560;DHT22;11958;50.836;4.438;2023-07-09T18:49:29;23.10;60.80
23560;DHT22;11958;50.836;4.438;2023-07-09T18:52:27;22.70;60.90
23560;DHT22;11958;50.836;4.438;2023-07-09T18:55:27;22.50;61.40
23560;DHT22;11958;50.836;4.438;2023-07-09T19:04:54;22.90;61.50
23560;DHT22;11958;50.836;4.438;2023-07-09T19:07:28;22.90;61.40
23560;DHT22;11958;50.836;4.438;2023-07-09T19:13:14;22.50;61.50
23560;DHT22;11958;50.836;4.438;2023-07-09T19:22:40;22.40;63.10
23560;DHT22;11958;50.836;4.438;2023-07-09T19:25:16;22.30;63.10
23560;DHT22;11958;50.836;4.438;2023-07-09T19:31:22;22.20;64.60
23560;DHT22;11958;50.836;4.438;2023-07-09T19:34:29;22.20;65.20
23560;DHT22;11958;50.836;4.438;2023-07-09T19:43:22;22.30;65.90
23560;DHT22;11958;50.836;4.438;2023-07-09T19:46:03;22.40;66.40
23560;DHT22;11958;50.836;4.438;2023-07-09T19:51:59;22.40;66.50
23560;DHT22;11958;50.836;4.438;2023-07-09T19:54:25;22.30;66.70
23560;DHT22;11958;50.836;4.438;2023-07-09T19:56:53;22.10;66.90
23560;DHT22;11958;50.836;4.438;2023-07-09T20:12:53;21.70;68.40
23560;DHT22;11958;50.836;4.438;2023-07-09T20:19:09;21.70;68.70
23560;DHT22;11958;50.836;4.438;2023-07-09T20:21:56;21.90;68.40
23560;DHT22;11958;50.836;4.438;2023-07-09T20:24:22;21.80;67.30
23560;DHT22;11958;50.836;4.438;2023-07-09T20:30:16;21.60;67.80
23560;DHT22;11958;50.836;4.438;2023-07-09T20:32:47;21.40;67.70
23560;DHT22;11958;50.836;4.438;2023-07-09T20:35:22;21.40;68.40
23560;DHT22;11958;50.836;4.438;2023-07-09T20:44:57;21.70;67.60
23560;DHT22;11958;50.836;4.438;2023-07-09T20:54:16;21.90;70.10
23560;DHT22;11958;50.836;4.438;2023-07-09T20:56:41;22.00;69.80
23560;DHT22;11958;50.836;4.438;2023-07-09T21:12:54;21.00;72.60
23560;DHT22;11958;50.836;4.438;2023-07-09T21:19:23;21.40;70.50
23560;DHT22;11958;50.836;4.438;2023-07-09T21:21:49;21.40;69.40
23560;DHT22;11958;50.836;4.438;2023-07-09T21:48:57;20.80;74.70
23560;DHT22;11958;50.836;4.438;2023-07-09T21:54:35;21.10;71.20
23560;DHT22;11958;50.836;4.438;2023-07-09T22:00:36;21.20;69.20
23560;DHT22;11958;50.836;4.438;2023-07-09T22:09:39;21.40;67.40
23560;DHT22;11958;50.836;4.438;2023-07-09T22:12:36;21.00;67.40
23560;DHT22;11958;50.836;4.438;2023-07-09T22:15:13;21.00;67.20
23560;DHT22;11958;50.836;4.438;2023-07-09T22:18:23;21.30;65.00
23560;DHT22;11958;50.836;4.438;2023-07-09T22:21:01;21.50;66.10
23560;DHT22;11958;50.836;4.438;2023-07-09T22:27:08;21.30;64.50
23560;DHT22;11958;50.836;4.438;2023-07-09T22:29:56;21.20;65.80
23560;DHT22;11958;50.836;4.438;2023-07-09T22:32:56;21.30;65.60
23560;DHT22;11958;50.836;4.438;2023-07-09T22:39:00;21.30;66.10
23560;DHT22;11958;50.836;4.438;2023-07-09T22:41:48;21.30;66.80
23560;DHT22;11958;50.836;4.438;2023-07-09T22:48:43;21.20;67.60
23560;DHT22;11958;50.836;4.438;2023-07-09T22:51:24;21.20;68.80
23560;DHT22;11958;50.836;4.438;2023-07-09T22:57:36;20.80;72.40
23560;DHT22;11958;50.836;4.438;2023-07-09T23:20:13;20.20;75.40
23560;DHT22;11958;50.836;4.438;2023-07-09T23:29:42;20.40;75.40
23560;DHT22;11958;50.836;4.438;2023-07-09T23:32:13;19.90;77.20
23560;DHT22;11958;50.836;4.438;2023-07-09T23:34:46;19.80;78.40
23560;DHT22;11958;50.836;4.438;2023-07-09T23:37:33;19.90;77.50
23560;DHT22;11958;50.836;4.438;2023-07-09T23:40:08;19.90;76.40
23560;DHT22;11958;50.836;4.438;2023-07-09T23:42:52;20.20;76.10
23560;DHT22;11958;50.836;4.438;2023-07-09T23:45:49;19.90;75.50
23560;DHT22;11958;50.836;4.438;2023-07-09T23:48:26;19.80;76.70
23560;DHT22;11958;50.836;4.438;2023-07-09T23:51:29;19.90;78.00
23560;DHT22;11958;50.836;4.438;2023-07-09T23:54:43;20.20;75.90
